Time;durP1;ratioP1;P1;durP2;ratioP2;P2;SDS_P1;SDS_P2;PMS_P1;PMS_P2;Temp;Humidity;BMP_temperature;BMP_pressure;BME280_temperature;BME280_humidity;BME280_pressure;Samples;Min_cycle;Max_cycle;Signal;HPM_P1;HPM_P2
2021/03/05 00:02:23;;;;;;;5.50;2.10;;;;;;;25.93;29.00;96614.34;4996670;28;20779;-28
2021/03/05 00:04:48;;;;;;;7.15;2.35;;;;;;;25.94;28.83;96616.03;5003126;28;20041;-29
2021/03/05 00:07:14;;;;;;;2.70;1.75;;;;;;;25.93;28.85;96619.59;4991702;28;20025;-29
2021/03/05 00:09:40;;;;;;;6.25;2.20;;;;;;;25.94;28.98;96621.28;4989286;28;20037;-28
2021/03/05 00:12:06;;;;;;;4.93;2.10;;;;;;;25.93;28.84;96622.22;5002297;28;20051;-27
2021/03/05 00:14:32;;;;;;;4.78;2.28;;;;;;;25.93;28.77;96619.59;5001313;28;20053;-30
2021/03/05 00:16:57;;;;;;;6.82;2.65;;;;;;;25.93;29.03;96627.47;4976377;28;20073;-29
2021/03/05 00:19:22;;;;;;;7.88;2.03;;;;;;;25.92;28.91;96628.38;5001797;28;20030;-28
2021/03/05 00:21:48;;;;;;;4.65;1.75;;;;;;;25.92;29.04;96631.00;5003412;28;20025;-28
2021/03/05 00:24:13;;;;;;;3.78;1.77;;;;;;;25.90;28.96;96625.84;4994327;28;20041;-33
2021/03/05 00:26:39;;;;;;;7.15;2.08;;;;;;;25.92;28.90;96623.13;4994031;28;20038;-29
2021/03/05 00:29:04;;;;;;;5.90;1.92;;;;;;;25.91;28.80;96627.56;4997507;28;20034;-29
2021/03/05 00:31:29;;;;;;;2.67;1.80;;;;;;;25.90;28.65;96635.53;4998684;28;20042;-28
2021/03/05 00:33:55;;;;;;;5.97;2.22;;;;;;;25.91;28.82;96647.72;5002248;28;20034;-29
2021/03/05 00:36:20;;;;;;;4.18;1.90;;;;;;;25.90;28.81;96651.28;4997459;28;20051;-29
2021/03/05 00:38:45;;;;;;;2.80;1.70;;;;;;;25.91;28.74;96660.84;4992029;28;20048;-28
2021/03/05 00:41:11;;;;;;;5.20;2.08;;;;;;;25.90;28.90;96661.78;5001437;28;20080;-28
2021/03/05 00:43:36;;;;;;;3.05;1.80;;;;;;;25.89;28.82;96660.09;4983280;28;20046;-28
2021/03/05 00:46:02;;;;;;;3.35;1.90;;;;;;;25.87;28.87;96670.66;4993047;28;20410;-27
2021/03/05 00:48:27;;;;;;;3.05;1.80;;;;;;;25.88;28.86;96674.13;5000042;28;20030;-29
2021/03/05 00:50:52;;;;;;;4.63;2.00;;;;;;;25.87;28.73;96677.69;4999892;28;20034;-30
2021/03/05 00:53:18;;;;;;;3.92;2.30;;;;;;;25.86;28.94;96681.25;4994418;28;20245;-28
2021/03/05 00:55:43;;;;;;;4.32;2.00;;;;;;;25.86;28.54;96676.84;4997362;28;20034;-27
2021/03/05 00:58:08;;;;;;;3.33;1.85;;;;;;;25.85;28.75;96682.19;5002177;28;20088;-28
2021/03/05 01:00:34;;;;;;;3.47;1.95;;;;;;;25.83;28.82;96685.72;4999889;28;20048;-28
2021/03/05 01:02:59;;;;;;;4.88;2.22;;;;;;;25.84;28.73;96689.19;5003084;28;20026;-29
2021/03/05 01:05:25;;;;;;;7.93;2.20;;;;;;;25.83;28.85;96693.59;4999188;28;20037;-29
2021/03/05 01:07:50;;;;;;;6.22;2.00;;;;;;;25.83;28.72;96682.25;4976292;28;20037;-29
2021/03/05 01:10:16;;;;;;;3.72;1.70;;;;;;;25.81;28.75;96684.97;4993588;28;20026;-30
2021/03/05 01:12:41;;;;;;;3.67;1.88;;;;;;;25.81;28.65;96686.75;4993872;28;20144;-29
2021/03/05 01:15:07;;;;;;;2.88;1.70;;;;;;;25.80;28.63;96691.16;4994075;28;20042;-29
2021/03/05 01:17:32;;;;;;;7.80;2.08;;;;;;;25.81;28.73;96694.59;5002081;28;20038;-28
2021/03/05 01:19:58;;;;;;;3.08;1.70;;;;;;;25.80;28.63;96699.03;4991707;28;20472;-30
2021/03/05 01:22:23;;;;;;;5.13;1.88;;;;;;;25.80;28.75;96696.41;4994898;28;20058;-27
2021/03/05 01:24:48;;;;;;;4.22;1.90;;;;;;;25.81;28.71;96695.47;5001171;28;20029;-29
2021/03/05 01:27:14;;;;;;;2.45;1.60;;;;;;;25.76;28.78;96692.25;5001846;28;20469;-28
2021/03/05 01:29:39;;;;;;;2.47;1.55;;;;;;;25.79;28.79;96699.97;4998667;28;20030;-29
2021/03/05 01:32:05;;;;;;;1.88;1.48;;;;;;;25.76;28.86;96692.25;4997285;28;20095;-28
2021/03/05 01:34:30;;;;;;;2.42;1.40;;;;;;;25.76;28.79;96691.41;4993846;28;20114;-29
2021/03/05 01:36:56;;;;;;;2.78;1.80;;;;;;;25.75;28.79;96689.72;5002741;28;20036;-29
2021/03/05 01:39:21;;;;;;;2.72;1.67;;;;;;;25.75;28.55;96694.97;4994959;28;20117;-28
2021/03/05 01:41:47;;;;;;;3.05;1.85;;;;;;;25.74;28.89;96704.59;4997357;28;20033;-29
2021/03/05 01:44:12;;;;;;;3.17;1.75;;;;;;;25.74;28.68;96704.59;5001859;28;20885;-30
2021/03/05 01:46:38;;;;;;;2.35;1.55;;;;;;;25.74;28.67;96701.16;4972420;28;20056;-28
2021/03/05 01:49:03;;;;;;;2.78;1.60;;;;;;;25.74;28.89;96703.78;4995229;28;20265;-28
2021/03/05 01:51:30;;;;;;;4.50;1.85;;;;;;;25.73;28.72;96708.16;4999122;28;20029;-28
2021/03/05 01:53:56;;;;;;;4.22;1.70;;;;;;;25.72;28.67;96701.22;4995442;28;20465;-28
2021/03/05 01:56:30;;;;;;;1.95;1.50;;;;;;;25.71;28.66;96704.78;5004452;28;20034;-31
2021/03/05 01:58:56;;;;;;;2.90;1.50;;;;;;;25.71;28.71;96707.41;5002697;28;20113;-31
2021/03/05 02:01:21;;;;;;;3.20;1.75;;;;;;;25.70;28.91;96708.31;4979382;28;20570;-28
2021/03/05 02:03:47;;;;;;;2.65;1.67;;;;;;;25.69;28.79;96702.25;4982665;28;20630;-28
2021/03/05 02:06:12;;;;;;;2.13;1.30;;;;;;;25.69;28.87;96706.63;4984654;28;20034;-30
2021/03/05 02:08:37;;;;;;;2.00;1.48;;;;;;;25.69;28.60;96717.13;4969465;28;20022;-29
2021/03/05 02:11:03;;;;;;;3.25;1.48;;;;;;;25.68;28.69;96721.56;5002077;28;20026;-28
2021/03/05 02:13:28;;;;;;;1.70;1.40;;;;;;;25.69;28.65;96711.88;4996822;28;20041;-29
2021/03/05 02:15:53;;;;;;;2.65;1.48;;;;;;;25.69;28.69;96717.13;4996840;28;20045;-29
2021/03/05 02:18:30;;;;;;;2.13;1.42;;;;;;;25.68;28.71;96712.81;4984743;28;20025;-30
2021/03/05 02:21:37;;;;;;;2.03;1.83;;;;;;;25.68;28.69;96715.44;4996901;28;20061;-29
2021/03/05 02:24:37;;;;;;;2.28;1.40;;;;;;;25.67;28.89;96719.00;4999053;28;20100;-28
2021/03/05 02:27:24;;;;;;;3.13;1.55;;;;;;;25.66;28.59;96720.78;4937643;28;20118;-28
2021/03/05 02:30:40;;;;;;;1.77;1.50;;;;;;;25.65;28.75;96726.09;4993230;28;20045;-28
2021/03/05 02:33:12;;;;;;;5.75;1.60;;;;;;;25.64;28.67;96733.13;4955237;28;20049;-27
2021/03/05 02:35:37;;;;;;;1.85;1.42;;;;;;;25.64;28.65;96741.00;5002508;28;20034;-29
2021/03/05 02:38:03;;;;;;;1.98;1.42;;;;;;;25.63;28.64;96731.41;4978847;28;20087;-34
2021/03/05 02:40:38;;;;;;;2.00;1.65;;;;;;;25.63;28.82;96744.53;4980490;28;20097;-29
2021/03/05 02:43:05;;;;;;;2.83;1.80;;;;;;;25.63;28.77;96749.78;4958874;28;20038;-30
2021/03/05 02:45:33;;;;;;;2.63;1.40;;;;;;;25.62;28.73;96742.84;4977819;28;20072;-27
2021/03/05 02:48:17;;;;;;;2.00;1.75;;;;;;;25.63;28.60;96748.97;4982796;28;20022;-29
2021/03/05 02:50:44;;;;;;;2.25;1.77;;;;;;;25.62;28.66;96749.91;4963516;28;20037;-29
2021/03/05 02:53:12;;;;;;;2.10;1.90;;;;;;;25.61;28.55;96745.56;4979591;28;20034;-28
2021/03/05 02:55:38;;;;;;;3.25;1.60;;;;;;;25.60;28.54;96741.25;4968554;28;20028;-29
2021/03/05 02:58:03;;;;;;;2.30;1.77;;;;;;;25.60;28.61;96755.22;4979821;28;20026;-28
2021/03/05 03:00:29;;;;;;;2.60;2.05;;;;;;;25.60;28.72;96749.13;4976373;28;20108;-30
2021/03/05 03:02:54;;;;;;;2.70;1.92;;;;;;;25.59;28.68;96744.81;5004783;28;20417;-31
2021/03/05 03:05:20;;;;;;;2.65;1.67;;;;;;;25.57;28.53;96748.38;4983494;28;20116;-30
2021/03/05 03:07:46;;;;;;;3.40;1.70;;;;;;;25.57;28.53;96745.75;4964287;28;20117;-28
2021/03/05 03:10:12;;;;;;;8.20;4.45;;;;;;;25.57;27.94;96756.22;4996124;28;20041;-27
2021/03/05 03:12:38;;;;;;;12.27;3.70;;;;;;;25.55;27.79;96758.03;4986772;28;20030;-30
2021/03/05 03:15:08;;;;;;;2.50;1.70;;;;;;;25.55;28.20;96762.47;4980803;28;20394;-28
2021/03/05 03:17:33;;;;;;;5.13;2.40;;;;;;;25.53;28.27;96770.41;4979601;28;20371;-29
2021/03/05 03:19:58;;;;;;;6.25;2.00;;;;;;;25.52;28.55;96779.19;4964518;28;20033;-31
2021/03/05 03:22:24;;;;;;;7.75;1.80;;;;;;;25.49;28.62;96779.38;4996533;28;20034;-28
2021/03/05 03:24:49;;;;;;;2.78;1.77;;;;;;;25.51;28.36;96781.91;4988826;28;20037;-29
2021/03/05 03:27:15;;;;;;;2.25;1.80;;;;;;;25.50;28.40;96783.69;4979239;28;20034;-29
2021/03/05 03:29:41;;;;;;;2.70;1.70;;;;;;;25.51;28.32;96782.75;4978130;28;20544;-28
2021/03/05 03:32:09;;;;;;;3.28;1.80;;;;;;;25.51;28.34;96788.00;5001679;28;20037;-32
2021/03/05 03:34:34;;;;;;;1.90;1.40;;;;;;;25.50;28.35;96781.06;4999788;28;20993;-27
2021/03/05 03:37:00;;;;;;;2.05;1.50;;;;;;;25.49;28.52;96784.63;4965757;28;20030;-28
2021/03/05 03:39:25;;;;;;;1.52;1.33;;;;;;;25.50;28.47;96786.31;4984327;28;20030;-29
2021/03/05 03:41:51;;;;;;;1.60;1.50;;;;;;;25.49;28.46;96782.00;4986443;28;20026;-28
2021/03/05 03:44:16;;;;;;;2.30;1.40;;;;;;;25.49;28.58;96781.13;5000271;28;20038;-28
2021/03/05 03:46:48;;;;;;;2.15;1.52;;;;;;;25.48;28.60;96782.06;4995941;28;20489;-29
2021/03/05 03:49:17;;;;;;;1.80;1.35;;;;;;;25.50;28.73;96791.56;4980273;28;20033;-29
2021/03/05 03:51:56;;;;;;;3.58;1.92;;;;;;;25.49;28.46;96784.63;5006842;28;20037;-28
2021/03/05 03:54:21;;;;;;;4.80;1.88;;;;;;;25.48;28.46;96790.78;4983860;28;20062;-30
2021/03/05 03:56:48;;;;;;;2.00;1.50;;;;;;;25.49;28.54;96794.25;4978394;28;20567;-29
2021/03/05 03:59:14;;;;;;;2.65;1.70;;;;;;;25.47;28.65;96786.47;4982662;28;20041;-30
2021/03/05 04:01:42;;;;;;;2.05;1.75;;;;;;;25.48;28.55;96797.81;4960627;28;20509;-30
2021/03/05 04:04:07;;;;;;;2.95;1.50;;;;;;;25.48;28.74;96801.28;4963699;28;20104;-29
2021/03/05 04:06:33;;;;;;;2.60;1.20;;;;;;;25.47;28.67;96796.94;4947441;28;20437;-28
2021/03/05 04:08:59;;;;;;;1.92;1.40;;;;;;;25.47;28.55;96798.75;5001689;28;20040;-26
2021/03/05 04:11:24;;;;;;;2.50;1.52;;;;;;;25.47;28.62;96806.63;4971879;28;21420;-28
2021/03/05 04:13:49;;;;;;;2.00;1.38;;;;;;;25.47;28.63;96796.13;4969549;28;20030;-27
2021/03/05 04:16:15;;;;;;;1.23;1.13;;;;;;;25.47;28.68;96796.94;4975802;28;20104;-27
2021/03/05 04:18:40;;;;;;;1.77;1.27;;;;;;;25.47;28.60;96801.38;5001502;28;20033;-29
2021/03/05 04:21:14;;;;;;;1.90;1.50;;;;;;;25.45;28.78;96799.66;4978638;28;20040;-28
2021/03/05 04:23:40;;;;;;;2.20;1.30;;;;;;;25.47;28.52;96804.81;4992608;28;20327;-29
2021/03/05 04:26:05;;;;;;;3.42;1.52;;;;;;;25.46;28.65;96805.75;4996028;28;20042;-28
2021/03/05 04:28:31;;;;;;;1.15;1.02;;;;;;;25.45;28.62;96806.69;4995398;28;20018;-28
2021/03/05 04:30:56;;;;;;;1.50;1.20;;;;;;;25.45;28.60;96810.13;4997262;28;20064;-29
2021/03/05 04:33:22;;;;;;;1.92;1.25;;;;;;;25.44;28.45;96805.81;4995870;28;20037;-28
2021/03/05 04:35:47;;;;;;;0.93;0.88;;;;;;;25.46;28.62;96813.63;5002307;28;20300;-30
2021/03/05 04:38:12;;;;;;;1.67;1.33;;;;;;;25.45;28.56;96809.31;4999176;28;20657;-30
2021/03/05 04:40:38;;;;;;;2.78;1.20;;;;;;;25.45;28.50;96804.06;4995358;28;20768;-28
2021/03/05 04:43:03;;;;;;;1.23;1.13;;;;;;;25.44;28.65;96808.44;4988789;28;20042;-30
2021/03/05 04:45:29;;;;;;;2.50;1.50;;;;;;;25.44;28.51;96808.44;4977297;28;20557;-28
2021/03/05 04:47:54;;;;;;;1.60;1.17;;;;;;;25.45;28.56;96814.56;5003613;28;20041;-29
2021/03/05 04:50:20;;;;;;;1.83;1.20;;;;;;;25.45;28.73;96819.81;4987016;28;20026;-28
2021/03/05 04:52:45;;;;;;;1.33;1.20;;;;;;;25.45;28.62;96817.19;4994045;28;20029;-30
2021/03/05 04:55:11;;;;;;;1.05;0.95;;;;;;;25.44;28.63;96818.13;4998713;28;20037;-29
2021/03/05 04:57:36;;;;;;;1.23;0.85;;;;;;;25.45;28.75;96819.81;4997963;28;20036;-30
2021/03/05 05:00:03;;;;;;;1.00;1.00;;;;;;;25.44;28.79;96826.81;5000237;28;20026;-29
2021/03/05 05:02:29;;;;;;;7.28;2.40;;;;;;;25.44;28.18;96823.38;4996542;28;20072;-28
2021/03/05 05:04:54;;;;;;;2.20;1.90;;;;;;;25.43;27.91;96822.50;4993732;28;20022;-27
2021/03/05 05:07:20;;;;;;;1.60;1.27;;;;;;;25.42;28.38;96819.97;4998584;28;20401;-29
2021/03/05 05:09:45;;;;;;;1.40;1.30;;;;;;;25.40;28.46;96822.66;4993498;28;20029;-29
2021/03/05 05:12:10;;;;;;;1.75;1.27;;;;;;;25.40;28.46;96821.81;5005830;28;20367;-28
2021/03/05 05:14:36;;;;;;;1.50;1.27;;;;;;;25.39;28.67;96826.22;4995055;28;20092;-28
2021/03/05 05:17:02;;;;;;;1.23;1.13;;;;;;;25.38;28.60;96832.38;5005210;28;20512;-30
2021/03/05 05:19:28;;;;;;;2.50;1.13;;;;;;;25.38;28.55;96832.38;5001099;28;20025;-29
2021/03/05 05:21:53;;;;;;;1.75;0.90;;;;;;;25.39;28.58;96838.47;4993150;28;20025;-29
2021/03/05 05:24:19;;;;;;;1.10;1.00;;;;;;;25.38;28.66;96844.66;5004492;28;20033;-28
2021/03/05 05:26:44;;;;;;;0.90;0.90;;;;;;;25.38;28.53;96842.03;5002488;28;20022;-29
2021/03/05 05:29:09;;;;;;;1.20;1.02;;;;;;;25.37;28.62;96837.72;4985712;28;20041;-29
2021/03/05 05:31:37;;;;;;;2.10;1.30;;;;;;;25.37;28.66;96848.19;5004498;28;20041;-34
2021/03/05 05:34:03;;;;;;;1.52;1.10;;;;;;;25.38;28.61;96844.66;5002632;28;20133;-28
2021/03/05 05:36:28;;;;;;;1.38;0.93;;;;;;;25.39;28.71;96848.97;5004212;28;20211;-31
2021/03/05 05:38:53;;;;;;;1.08;0.93;;;;;;;25.38;28.55;96847.28;5002303;28;20399;-31
2021/03/05 05:41:21;;;;;;;1.33;1.08;;;;;;;25.38;28.50;96849.88;5007759;28;20029;-29
2021/03/05 05:43:46;;;;;;;4.00;1.10;;;;;;;25.38;28.76;96855.13;4984921;28;20045;-28
2021/03/05 05:46:12;;;;;;;2.05;1.10;;;;;;;25.38;28.63;96849.88;5000446;28;20037;-29
2021/03/05 05:48:38;;;;;;;1.38;1.13;;;;;;;25.37;28.53;96858.69;4969137;28;20025;-27
2021/03/05 05:51:06;;;;;;;2.65;0.98;;;;;;;25.36;28.53;96854.38;4983755;28;20374;-28
2021/03/05 05:53:33;;;;;;;1.83;1.00;;;;;;;25.36;28.71;96862.25;4978892;28;20030;-31
2021/03/05 05:55:59;;;;;;;1.30;0.88;;;;;;;25.35;28.72;96860.56;5003137;28;20105;-27
2021/03/05 05:58:26;;;;;;;1.83;0.90;;;;;;;25.36;28.60;96862.25;5003462;28;20026;-29
2021/03/05 06:00:54;;;;;;;1.38;0.90;;;;;;;25.34;28.67;96853.59;5003553;28;20034;-29
2021/03/05 06:03:19;;;;;;;0.80;0.80;;;;;;;25.34;28.59;96859.69;5002390;28;20038;-28
2021/03/05 06:05:45;;;;;;;1.00;0.75;;;;;;;25.34;28.72;96866.72;4971616;28;20737;-29
2021/03/05 06:08:10;;;;;;;1.10;0.90;;;;;;;25.35;28.48;96860.56;4982468;28;20033;-28
2021/03/05 06:10:35;;;;;;;0.98;0.75;;;;;;;25.34;28.42;96869.34;4979477;28;20502;-30
2021/03/05 06:13:01;;;;;;;1.25;0.93;;;;;;;25.31;28.50;96873.81;4994179;28;20085;-29
2021/03/05 06:15:28;;;;;;;1.58;0.88;;;;;;;25.31;28.51;96868.56;4998038;28;20195;-27
2021/03/05 06:17:53;;;;;;;1.08;1.00;;;;;;;25.30;28.57;96874.75;4995510;28;20033;-29
2021/03/05 06:20:19;;;;;;;0.85;0.82;;;;;;;25.31;28.51;96876.44;5006460;28;20410;-27
2021/03/05 06:22:46;;;;;;;0.60;0.60;;;;;;;25.30;28.79;96890.50;5003676;28;20517;-28
2021/03/05 06:25:12;;;;;;;0.55;0.55;;;;;;;25.30;28.59;96890.50;5002813;28;20555;-27
2021/03/05 06:27:38;;;;;;;0.90;0.90;;;;;;;25.29;28.75;96888.78;5003321;28;20033;-29
2021/03/05 06:30:04;;;;;;;0.80;0.80;;;;;;;25.29;28.67;96899.25;4980309;28;20409;-28
2021/03/05 06:32:37;;;;;;;1.73;0.88;;;;;;;25.30;28.51;96900.97;4979741;28;20033;-30
2021/03/05 06:35:03;;;;;;;0.80;0.80;;;;;;;25.28;28.60;96908.06;5001930;28;20026;-30
2021/03/05 06:37:46;;;;;;;1.33;0.98;;;;;;;25.29;28.77;96909.75;4996367;28;20028;-29
2021/03/05 06:40:12;;;;;;;1.08;0.70;;;;;;;25.29;28.70;96908.91;5001118;28;20112;-28
2021/03/05 06:42:56;;;;;;;0.63;0.63;;;;;;;25.28;28.78;96918.56;4997148;28;20761;-32
2021/03/05 06:45:23;;;;;;;0.90;0.90;;;;;;;25.28;28.61;96926.41;4963880;28;20026;-31
2021/03/05 06:48:05;;;;;;;1.63;1.10;;;;;;;25.29;28.55;96922.03;5002340;28;20474;-30
2021/03/05 06:50:31;;;;;;;1.45;0.70;;;;;;;25.29;28.62;96924.66;5000575;28;20557;-30
2021/03/05 06:52:57;;;;;;;2.50;0.98;;;;;;;25.28;28.70;96928.22;5006712;28;20044;-29
2021/03/05 06:55:22;;;;;;;1.70;0.90;;;;;;;25.27;28.64;96932.59;5002942;28;20042;-29
2021/03/05 06:57:48;;;;;;;0.68;0.65;;;;;;;25.27;28.55;96929.97;4975052;28;20113;-29
2021/03/05 07:00:18;;;;;;;2.10;0.90;;;;;;;25.27;28.59;96936.97;4970280;28;20022;-30
2021/03/05 07:02:43;;;;;;;2.63;0.85;;;;;;;25.26;28.90;96936.16;4999559;28;20061;-29
2021/03/05 07:05:09;;;;;;;1.80;0.75;;;;;;;25.27;28.73;96943.09;4980271;28;20042;-29
2021/03/05 07:07:44;;;;;;;2.55;1.00;;;;;;;25.27;28.83;96943.09;4997864;28;20022;-30
2021/03/05 07:10:10;;;;;;;1.48;0.80;;;;;;;25.25;28.75;96939.69;4993333;28;20045;-30
2021/03/05 07:12:36;;;;;;;1.30;0.73;;;;;;;25.25;28.75;96944.91;4992605;28;20125;-29
2021/03/05 07:15:10;;;;;;;2.08;0.70;;;;;;;25.26;28.83;96951.03;5001676;28;20052;-29
2021/03/05 07:17:36;;;;;;;1.55;0.90;;;;;;;25.25;28.60;96950.16;5004040;28;20104;-29
2021/03/05 07:20:01;;;;;;;2.63;0.88;;;;;;;25.25;28.62;96952.78;5004656;28;20026;-28
2021/03/05 07:22:29;;;;;;;0.93;0.80;;;;;;;25.25;28.64;96950.16;4998933;28;20057;-29
2021/03/05 07:25:01;;;;;;;1.40;0.80;;;;;;;25.24;28.81;96953.72;5002821;28;20120;-28
2021/03/05 07:27:28;;;;;;;0.88;0.70;;;;;;;25.25;28.82;96959.81;4982041;28;20148;-28
2021/03/05 07:29:55;;;;;;;1.30;0.60;;;;;;;25.24;28.85;96953.72;5001688;28;20030;-28
2021/03/05 07:32:21;;;;;;;1.52;0.90;;;;;;;25.24;28.65;96963.38;4977976;28;20038;-27
2021/03/05 07:35:03;;;;;;;0.63;0.60;;;;;;;25.23;28.63;96969.53;4965894;28;20493;-28
2021/03/05 07:37:30;;;;;;;;;;;;;;;25.23;28.65;96970.38;4963646;28;20038;-28
2021/03/05 07:39:55;;;;;;;2.45;0.90;;;;;;;25.23;28.81;96973.00;4975997;28;19960;-28
2021/03/05 07:42:20;;;;;;;6.68;1.00;;;;;;;25.22;28.69;96981.81;4965024;28;20041;-31
2021/03/05 07:44:46;;;;;;;5.78;1.40;;;;;;;25.20;28.70;96978.41;4963961;28;20487;-28
2021/03/05 07:47:13;;;;;;;7.63;1.23;;;;;;;25.20;28.89;96988.88;4950237;28;20047;-29
2021/03/05 07:49:38;;;;;;;17.92;1.95;;;;;;;25.19;28.49;96987.19;4955617;28;20034;-31
2021/03/05 07:52:04;;;;;;;5.57;1.00;;;;;;;25.19;28.48;96992.44;4938329;28;20037;-32
2021/03/05 07:54:43;;;;;;;8.98;1.30;;;;;;;25.18;28.50;96991.56;4957396;28;20084;-32
2021/03/05 07:57:28;;;;;;;2.88;1.10;;;;;;;25.17;28.75;96996.91;4957092;28;20035;-28
2021/03/05 07:59:56;;;;;;;2.58;1.00;;;;;;;25.18;28.75;97003.84;4960781;28;20046;-30
2021/03/05 08:02:23;;;;;;;5.53;0.85;;;;;;;25.18;28.87;97003.84;4974312;28;20715;-31
2021/03/05 08:05:05;;;;;;;8.77;1.50;;;;;;;25.17;28.56;97004.78;4973419;28;20034;-28
2021/03/05 08:07:32;;;;;;;2.38;1.50;;;;;;;25.18;28.69;97006.47;4974477;28;20097;-29
2021/03/05 08:09:57;;;;;;;2.65;0.88;;;;;;;25.17;28.68;97010.03;4971500;28;20077;-29
2021/03/05 08:12:28;;;;;;;5.93;1.10;;;;;;;25.18;28.81;97017.81;4972733;28;20034;-31
2021/03/05 08:15:09;;;;;;;3.45;1.17;;;;;;;25.16;28.78;97019.66;4972338;28;20125;-28
2021/03/05 08:17:39;;;;;;;4.05;0.98;;;;;;;25.17;28.78;97025.75;4974005;28;20038;-30
2021/03/05 08:20:06;;;;;;;3.25;1.27;;;;;;;25.18;28.82;97025.66;4976633;28;20092;-30
2021/03/05 08:22:32;;;;;;;4.93;1.00;;;;;;;25.18;28.92;97027.47;4960169;28;20022;-29
2021/03/05 08:25:33;;;;;;;3.55;1.00;;;;;;;25.18;28.79;97032.72;4975155;28;20044;-29
2021/03/05 08:28:00;;;;;;;7.38;1.50;;;;;;;25.18;28.99;97028.28;4889279;29;20047;-34
2021/03/05 08:30:28;;;;;;;8.60;1.20;;;;;;;25.18;29.03;97028.28;4951771;28;21215;-30
2021/03/05 08:32:58;;;;;;;1.85;0.90;;;;;;;25.19;28.81;97037.03;4973018;28;20034;-29
2021/03/05 08:35:43;;;;;;;2.67;1.10;;;;;;;25.18;29.09;97035.31;4970960;28;20038;-30
2021/03/05 08:38:20;;;;;;;1.33;0.90;;;;;;;25.18;29.13;97036.16;4975694;28;20034;-29
2021/03/05 08:40:45;;;;;;;1.85;0.95;;;;;;;25.20;29.05;97036.09;4972035;28;20037;-30
2021/03/05 08:43:10;;;;;;;2.67;1.10;;;;;;;25.21;28.84;97044.81;4970277;28;20034;-30
2021/03/05 08:45:40;;;;;;;2.72;1.23;;;;;;;25.21;28.87;97043.06;4972713;28;20208;-30
2021/03/05 08:48:05;;;;;;;1.30;0.82;;;;;;;25.21;29.19;97050.94;4973699;28;20034;-27
2021/03/05 08:50:33;;;;;;;1.30;0.90;;;;;;;25.22;28.88;97042.13;4973703;28;20708;-32
2021/03/05 08:52:59;;;;;;;3.35;0.73;;;;;;;25.21;28.93;97043.06;4971334;28;20125;-30
2021/03/05 08:55:28;;;;;;;3.08;1.08;;;;;;;25.22;29.11;97047.38;4957556;28;21999;-32
2021/03/05 08:57:54;;;;;;;3.17;0.88;;;;;;;25.23;28.98;97049.06;4972003;28;20473;-30
2021/03/05 09:00:20;;;;;;;3.10;0.90;;;;;;;25.22;29.09;97050.00;4941331;28;20128;-31
2021/03/05 09:02:52;;;;;;;1.83;0.90;;;;;;;25.24;28.99;97056.00;4975387;28;20542;-31
2021/03/05 09:05:28;;;;;;;2.72;0.98;;;;;;;25.25;29.19;97055.09;4978704;28;20041;-29
2021/03/05 09:07:54;;;;;;;9.23;1.20;;;;;;;25.25;28.96;97062.94;4980185;28;20069;-29
2021/03/05 09:10:21;;;;;;;1.85;0.93;;;;;;;25.25;28.97;97057.72;4976781;28;20652;-30
2021/03/05 09:12:57;;;;;;;2.88;0.95;;;;;;;25.23;29.21;97056.94;4975940;28;20418;-29
2021/03/05 09:15:27;;;;;;;2.50;1.17;;;;;;;25.24;29.21;97066.50;4976774;28;20068;-29
2021/03/05 09:17:53;;;;;;;2.30;1.00;;;;;;;25.25;29.06;97065.56;4973587;28;20022;-32
2021/03/05 09:20:19;;;;;;;1.90;1.05;;;;;;;25.25;29.14;97059.50;4973512;28;20050;-29
2021/03/05 09:22:44;;;;;;;1.83;1.30;;;;;;;25.26;28.92;97071.69;4977470;28;20084;-32
2021/03/05 09:25:10;;;;;;;3.17;1.00;;;;;;;25.26;29.20;97072.53;4977341;28;20171;-29
2021/03/05 09:27:40;;;;;;;1.48;0.60;;;;;;;25.27;29.22;97074.25;4974605;28;20034;-29
2021/03/05 09:30:31;;;;;;;2.70;0.88;;;;;;;25.27;29.22;97079.47;4982805;28;20058;-28
2021/03/05 09:32:57;;;;;;;2.25;0.82;;;;;;;25.27;29.10;97082.09;4995622;28;20079;-30
2021/03/05 09:35:26;;;;;;;1.88;0.65;;;;;;;25.27;29.17;97079.47;4999227;28;20612;-30
2021/03/05 09:37:52;;;;;;;5.85;2.10;;;;;;;25.28;28.41;97082.97;5006780;28;20398;-28
2021/03/05 09:40:18;;;;;;;12.05;1.83;;;;;;;25.27;27.93;97084.72;4996792;28;20050;-28
2021/03/05 09:42:50;;;;;;;12.88;2.15;;;;;;;25.26;28.51;97077.78;5004591;28;20022;-30
2021/03/05 09:45:35;;;;;;;8.40;1.10;;;;;;;25.27;28.81;97079.47;5005164;28;20044;-31
2021/03/05 09:48:00;;;;;;;8.85;1.70;;;;;;;25.26;28.85;97090.03;4992432;28;20104;-31
2021/03/05 09:50:26;;;;;;;10.00;1.40;;;;;;;25.24;29.04;97092.72;5001690;28;20486;-29
2021/03/05 09:52:52;;;;;;;9.80;1.30;;;;;;;25.24;29.17;97084.88;4975705;28;20656;-30
2021/03/05 09:55:28;;;;;;;3.72;1.30;;;;;;;25.23;29.01;97082.31;4996697;28;20106;-31
2021/03/05 09:57:53;;;;;;;5.72;1.55;;;;;;;25.24;29.07;97090.09;4997458;28;20418;-30
2021/03/05 10:00:31;;;;;;;4.03;1.50;;;;;;;25.24;29.14;97095.34;4992893;28;20034;-29
2021/03/05 10:03:07;;;;;;;8.13;1.52;;;;;;;25.25;28.61;97099.66;4959679;28;20049;-30
2021/03/05 10:05:34;;;;;;;8.82;1.38;;;;;;;25.24;28.98;97108.47;4957116;28;20030;-29
2021/03/05 10:07:59;;;;;;;8.50;1.38;;;;;;;25.25;29.21;97099.66;4948078;28;20076;-29
2021/03/05 10:10:25;;;;;;;13.90;1.73;;;;;;;25.26;29.04;97109.25;4962121;28;20030;-29
2021/03/05 10:12:52;;;;;;;25.20;3.05;;;;;;;25.26;29.41;97113.66;4967465;28;20495;-29
2021/03/05 10:15:17;;;;;;;17.10;3.08;;;;;;;25.24;29.19;97108.47;4974894;28;20173;-32
2021/03/05 10:17:43;;;;;;;26.05;3.78;;;;;;;25.26;29.37;97118.91;4966524;28;20822;-29
2021/03/05 10:20:10;;;;;;;20.77;3.83;;;;;;;25.26;29.13;97113.66;4987944;28;20034;-31
2021/03/05 10:22:36;;;;;;;25.35;3.28;;;;;;;25.26;29.31;97117.13;4986114;28;20030;-30
2021/03/05 10:25:01;;;;;;;19.02;2.97;;;;;;;25.28;29.32;97115.28;4985472;28;20049;-30
2021/03/05 10:27:26;;;;;;;17.98;3.60;;;;;;;25.29;29.21;97114.34;4966310;28;20027;-34
2021/03/05 10:29:56;;;;;;;20.55;3.20;;;;;;;25.30;29.11;97110.84;4961526;28;20030;-31
2021/03/05 10:32:25;;;;;;;17.17;3.67;;;;;;;25.34;29.31;97115.91;5002433;28;20033;-31
2021/03/05 10:34:54;;;;;;;18.58;3.42;;;;;;;25.34;29.28;97115.91;5002193;28;20033;-28
2021/03/05 10:37:20;;;;;;;16.25;3.28;;;;;;;25.38;29.10;97117.47;4997387;28;20040;-32
2021/03/05 10:39:46;;;;;;;13.15;3.42;;;;;;;25.38;29.22;97128.84;5003865;28;20509;-29
2021/03/05 10:42:15;;;;;;;13.18;3.08;;;;;;;25.40;28.97;97132.22;5005424;28;20396;-30
2021/03/05 10:44:42;;;;;;;13.82;3.47;;;;;;;25.40;28.93;97134.00;5004407;28;20704;-31
2021/03/05 10:47:08;;;;;;;11.80;3.10;;;;;;;25.41;29.02;97138.34;4993637;28;20053;-30
2021/03/05 10:49:34;;;;;;;13.18;3.28;;;;;;;25.41;29.14;97143.56;4997909;28;20046;-29
2021/03/05 10:52:02;;;;;;;13.75;2.63;;;;;;;25.42;28.94;97140.03;4969754;28;20026;-32
2021/03/05 10:54:27;;;;;;;10.85;2.65;;;;;;;25.43;28.96;97146.97;5002319;28;20034;-29
2021/03/05 10:56:53;;;;;;;10.95;2.78;;;;;;;25.44;29.09;97148.69;5007122;28;20029;-29
2021/03/05 10:59:19;;;;;;;14.20;2.85;;;;;;;25.44;28.87;97148.69;5000234;28;20030;-28
2021/03/05 11:01:46;;;;;;;16.73;2.80;;;;;;;25.44;28.93;97148.69;4990522;28;20042;-29
2021/03/05 11:04:11;;;;;;;12.52;2.58;;;;;;;25.44;29.05;97154.78;4977236;28;20622;-29
2021/03/05 11:06:37;;;;;;;14.13;2.70;;;;;;;25.43;28.94;97158.31;4979824;28;20034;-33
2021/03/05 11:09:04;;;;;;;14.90;2.90;;;;;;;25.45;28.84;97166.13;4988759;28;20511;-29
2021/03/05 11:11:29;;;;;;;10.77;2.63;;;;;;;25.45;28.85;97158.25;4987507;28;20015;-29
2021/03/05 11:13:55;;;;;;;8.85;2.47;;;;;;;25.44;28.99;97161.81;4972097;28;20046;-29
2021/03/05 11:16:20;;;;;;;7.25;2.30;;;;;;;25.43;29.01;97165.34;4968156;28;20494;-32
2021/03/05 11:18:46;;;;;;;9.43;2.30;;;;;;;25.43;28.54;97162.72;4954344;28;20034;-34
2021/03/05 11:21:11;;;;;;;9.00;2.47;;;;;;;25.42;28.92;97159.25;4972784;28;20513;-30
2021/03/05 11:23:36;;;;;;;6.75;2.20;;;;;;;25.42;28.81;97166.25;4974029;28;20030;-30
2021/03/05 11:26:02;;;;;;;11.73;2.75;;;;;;;25.41;28.77;97162.81;4975270;28;20640;-30
2021/03/05 11:28:30;;;;;;;7.72;2.30;;;;;;;25.39;28.77;97162.00;4974910;28;20030;-31
2021/03/05 11:30:55;;;;;;;10.63;2.17;;;;;;;25.40;28.83;97173.38;4976730;28;20030;-30
2021/03/05 11:33:21;;;;;;;8.60;2.35;;;;;;;25.37;29.08;97163.88;4970379;28;20033;-31
2021/03/05 11:35:46;;;;;;;7.40;2.47;;;;;;;25.39;28.63;97169.00;4970139;28;21286;-31